sensor_id;sensor_type;location;lat;lon;timestamp;P1;durP1;ratioP1;P2;durP2;ratioP2
12956;SDS011;6543;48.836;10.092;2023-03-02T00:00:30;35.07;;;20.07;;
12956;SDS011;6543;48.836;10.092;2023-03-02T00:02:58;32.03;;;19.33;;
12956;SDS011;6543;48.836;10.092;2023-03-02T00:05:27;32.93;;;19.53;;
12956;SDS011;6543;48.836;10.092;2023-03-02T00:07:55;30.43;;;17.00;;
12956;SDS011;6543;48.836;10.092;2023-03-02T00:10:23;32.03;;;17.70;;
12956;SDS011;6543;48.836;10.092;2023-03-02T00:12:50;33.73;;;20.50;;
12956;SDS011;6543;48.836;10.092;2023-03-02T00:15:17;29.80;;;19.63;;
12956;SDS011;6543;48.836;10.092;2023-03-02T00:17:44;34.90;;;19.10;;
12956;SDS011;6543;48.836;10.092;2023-03-02T00:20:11;30.87;;;19.33;;
12956;SDS011;6543;48.836;10.092;2023-03-02T00:22:40;32.50;;;18.63;;
12956;SDS011;6543;48.836;10.092;2023-03-02T00:25:09;28.80;;;19.13;;
12956;SDS011;6543;48.836;10.092;2023-03-02T00:27:37;33.00;;;19.43;;
12956;SDS011;6543;48.836;10.092;2023-03-02T00:30:04;36.57;;;21.33;;
12956;SDS011;6543;48.836;10.092;2023-03-02T00:32:32;32.83;;;20.17;;
12956;SDS011;6543;48.836;10.092;2023-03-02T00:34:59;30.17;;;19.27;;
12956;SDS011;6543;48.836;10.092;2023-03-02T00:37:26;30.40;;;19.17;;
12956;SDS011;6543;48.836;10.092;2023-03-02T00:39:54;31.13;;;19.63;;
12956;SDS011;6543;48.836;10.092;2023-03-02T00:42:21;31.60;;;20.10;;
12956;SDS011;6543;48.836;10.092;2023-03-02T00:44:47;33.87;;;20.20;;
12956;SDS011;6543;48.836;10.092;2023-03-02T00:47:14;29.50;;;19.87;;
12956;SDS011;6543;48.836;10.092;2023-03-02T00:49:41;31.87;;;19.10;;
12956;SDS011;6543;48.836;10.092;2023-03-02T00:52:12;34.00;;;19.30;;
12956;SDS011;6543;48.836;10.092;2023-03-02T00:54:39;32.37;;;19.63;;
12956;SDS011;6543;48.836;10.092;2023-03-02T00:57:08;33.03;;;20.70;;
12956;SDS011;6543;48.836;10.092;2023-03-02T00:59:35;33.73;;;20.37;;
12956;SDS011;6543;48.836;10.092;2023-03-02T01:02:03;31.77;;;20.00;;
12956;SDS011;6543;48.836;10.092;2023-03-02T01:04:32;28.70;;;18.97;;
12956;SDS011;6543;48.836;10.092;2023-03-02T01:07:00;34.23;;;19.53;;
12956;SDS011;6543;48.836;10.092;2023-03-02T01:09:28;34.73;;;20.33;;
12956;SDS011;6543;48.836;10.092;2023-03-02T01:11:56;33.03;;;19.33;;
12956;SDS011;6543;48.836;10.092;2023-03-02T01:14:24;30.13;;;19.87;;
12956;SDS011;6543;48.836;10.092;2023-03-02T01:16:51;33.27;;;19.67;;
12956;SDS011;6543;48.836;10.092;2023-03-02T01:19:18;33.73;;;20.30;;
12956;SDS011;6543;48.836;10.092;2023-03-02T01:21:44;35.80;;;19.03;;
12956;SDS011;6543;48.836;10.092;2023-03-02T01:24:11;28.27;;;17.83;;
12956;SDS011;6543;48.836;10.092;2023-03-02T01:26:38;30.17;;;18.83;;
12956;SDS011;6543;48.836;10.092;2023-03-02T01:29:05;32.33;;;19.93;;
12956;SDS011;6543;48.836;10.092;2023-03-02T01:31:33;31.27;;;19.10;;
12956;SDS011;6543;48.836;10.092;2023-03-02T01:34:00;34.60;;;20.80;;
12956;SDS011;6543;48.836;10.092;2023-03-02T01:36:27;33.87;;;20.43;;
12956;SDS011;6543;48.836;10.092;2023-03-02T01:38:54;33.77;;;19.70;;
12956;SDS011;6543;48.836;10.092;2023-03-02T01:41:20;34.73;;;19.87;;
12956;SDS011;6543;48.836;10.092;2023-03-02T01:43:47;31.97;;;18.37;;
12956;SDS011;6543;48.836;10.092;2023-03-02T01:46:14;32.13;;;19.17;;
12956;SDS011;6543;48.836;10.092;2023-03-02T01:48:45;29.60;;;18.73;;
12956;SDS011;6543;48.836;10.092;2023-03-02T01:51:16;34.50;;;20.00;;
12956;SDS011;6543;48.836;10.092;2023-03-02T01:53:45;33.33;;;19.67;;
12956;SDS011;6543;48.836;10.092;2023-03-02T01:56:17;29.93;;;18.23;;
12956;SDS011;6543;48.836;10.092;2023-03-02T01:58:50;29.50;;;17.97;;
12956;SDS011;6543;48.836;10.092;2023-03-02T02:01:19;33.27;;;18.97;;
12956;SDS011;6543;48.836;10.092;2023-03-02T02:03:49;31.23;;;18.87;;
12956;SDS011;6543;48.836;10.092;2023-03-02T02:06:17;25.97;;;16.90;;
12956;SDS011;6543;48.836;10.092;2023-03-02T02:08:48;28.33;;;15.70;;
12956;SDS011;6543;48.836;10.092;2023-03-02T02:11:18;32.23;;;19.50;;
12956;SDS011;6543;48.836;10.092;2023-03-02T02:13:45;27.40;;;17.47;;
12956;SDS011;6543;48.836;10.092;2023-03-02T02:16:11;27.30;;;16.20;;
12956;SDS011;6543;48.836;10.092;2023-03-02T02:18:39;27.83;;;17.37;;
12956;SDS011;6543;48.836;10.092;2023-03-02T02:21:08;28.53;;;18.57;;
12956;SDS011;6543;48.836;10.092;2023-03-02T02:23:37;29.60;;;19.33;;
12956;SDS011;6543;48.836;10.092;2023-03-02T02:26:09;30.20;;;18.07;;
12956;SDS011;6543;48.836;10.092;2023-03-02T02:28:42;30.83;;;16.97;;
12956;SDS011;6543;48.836;10.092;2023-03-02T02:31:15;27.50;;;17.73;;
12956;SDS011;6543;48.836;10.092;2023-03-02T02:33:48;32.53;;;19.90;;
12956;SDS011;6543;48.836;10.092;2023-03-02T02:36:19;30.57;;;17.27;;
12956;SDS011;6543;48.836;10.092;2023-03-02T02:38:49;28.83;;;18.33;;
12956;SDS011;6543;48.836;10.092;2023-03-02T02:41:21;36.27;;;18.93;;
12956;SDS011;6543;48.836;10.092;2023-03-02T02:43:52;31.17;;;17.97;;
12956;SDS011;6543;48.836;10.092;2023-03-02T02:46:19;28.63;;;14.43;;
12956;SDS011;6543;48.836;10.092;2023-03-02T02:48:46;32.50;;;18.67;;
12956;SDS011;6543;48.836;10.092;2023-03-02T02:51:15;26.60;;;17.87;;
12956;SDS011;6543;48.836;10.092;2023-03-02T02:53:47;26.60;;;17.17;;
12956;SDS011;6543;48.836;10.092;2023-03-02T02:56:23;30.33;;;17.70;;
12956;SDS011;6543;48.836;10.092;2023-03-02T02:58:52;28.90;;;17.80;;
12956;SDS011;6543;48.836;10.092;2023-03-02T03:01:21;27.73;;;17.57;;
12956;SDS011;6543;48.836;10.092;2023-03-02T03:03:50;29.33;;;17.77;;
12956;SDS011;6543;48.836;10.092;2023-03-02T03:06:19;25.67;;;17.67;;
12956;SDS011;6543;48.836;10.092;2023-03-02T03:08:58;24.93;;;17.13;;
12956;SDS011;6543;48.836;10.092;2023-03-02T03:11:27;28.00;;;18.37;;
12956;SDS011;6543;48.836;10.092;2023-03-02T03:14:06;28.03;;;18.73;;
12956;SDS011;6543;48.836;10.092;2023-03-02T03:16:34;32.17;;;19.73;;
12956;SDS011;6543;48.836;10.092;2023-03-02T03:19:05;37.43;;;18.77;;
12956;SDS011;6543;48.836;10.092;2023-03-02T03:21:35;32.97;;;18.30;;
12956;SDS011;6543;48.836;10.092;2023-03-02T03:24:02;31.83;;;18.63;;
12956;SDS011;6543;48.836;10.092;2023-03-02T03:26:31;31.07;;;16.33;;
12956;SDS011;6543;48.836;10.092;2023-03-02T03:28:58;27.03;;;18.00;;
12956;SDS011;6543;48.836;10.092;2023-03-02T03:31:25;30.37;;;18.13;;
12956;SDS011;6543;48.836;10.092;2023-03-02T03:33:53;28.77;;;18.40;;
12956;SDS011;6543;48.836;10.092;2023-03-02T03:36:20;27.80;;;17.77;;
12956;SDS011;6543;48.836;10.092;2023-03-02T03:38:47;31.17;;;18.73;;
12956;SDS011;6543;48.836;10.092;2023-03-02T03:41:14;26.60;;;18.03;;
12956;SDS011;6543;48.836;10.092;2023-03-02T03:43:42;33.57;;;19.10;;
12956;SDS011;6543;48.836;10.092;2023-03-02T03:46:09;33.03;;;19.10;;
12956;SDS011;6543;48.836;10.092;2023-03-02T03:48:36;31.53;;;18.40;;
12956;SDS011;6543;48.836;10.092;2023-03-02T03:51:03;29.23;;;17.27;;
12956;SDS011;6543;48.836;10.092;2023-03-02T03:53:30;29.77;;;19.70;;
12956;SDS011;6543;48.836;10.092;2023-03-02T03:55:58;27.57;;;17.60;;
12956;SDS011;6543;48.836;10.092;2023-03-02T03:58:25;28.30;;;17.67;;
12956;SDS011;6543;48.836;10.092;2023-03-02T04:00:53;26.87;;;17.77;;
12956;SDS011;6543;48.836;10.092;2023-03-02T04:03:20;30.10;;;17.67;;
12956;SDS011;6543;48.836;10.092;2023-03-02T04:05:47;26.50;;;16.80;;
12956;SDS011;6543;48.836;10.092;2023-03-02T04:08:14;28.63;;;18.43;;
12956;SDS011;6543;48.836;10.092;2023-03-02T04:10:41;26.27;;;17.47;;
12956;SDS011;6543;48.836;10.092;2023-03-02T04:13:08;31.20;;;16.63;;
12956;SDS011;6543;48.836;10.092;2023-03-02T04:15:36;24.97;;;17.90;;
12956;SDS011;6543;48.836;10.092;2023-03-02T04:18:05;31.43;;;17.47;;
12956;SDS011;6543;48.836;10.092;2023-03-02T04:20:31;27.80;;;18.57;;
12956;SDS011;6543;48.836;10.092;2023-03-02T04:22:58;32.77;;;19.53;;
12956;SDS011;6543;48.836;10.092;2023-03-02T04:25:26;29.63;;;18.23;;
12956;SDS011;6543;48.836;10.092;2023-03-02T04:27:54;29.97;;;16.77;;
12956;SDS011;6543;48.836;10.092;2023-03-02T04:30:22;28.93;;;17.73;;
12956;SDS011;6543;48.836;10.092;2023-03-02T04:32:51;28.60;;;17.37;;
12956;SDS011;6543;48.836;10.092;2023-03-02T04:35:19;30.43;;;18.10;;
12956;SDS011;6543;48.836;10.092;2023-03-02T04:37:46;28.73;;;18.40;;
12956;SDS011;6543;48.836;10.092;2023-03-02T04:40:13;24.60;;;14.83;;
12956;SDS011;6543;48.836;10.092;2023-03-02T04:42:41;28.53;;;17.80;;
12956;SDS011;6543;48.836;10.092;2023-03-02T04:45:10;29.70;;;18.13;;
12956;SDS011;6543;48.836;10.092;2023-03-02T04:47:37;26.43;;;17.47;;
12956;SDS011;6543;48.836;10.092;2023-03-02T04:50:05;28.83;;;17.13;;
12956;SDS011;6543;48.836;10.092;2023-03-02T04:52:34;29.83;;;17.77;;
12956;SDS011;6543;48.836;10.092;2023-03-02T04:55:02;29.27;;;18.40;;
12956;SDS011;6543;48.836;10.092;2023-03-02T04:57:29;26.50;;;17.73;;
12956;SDS011;6543;48.836;10.092;2023-03-02T04:59:56;27.77;;;17.10;;
12956;SDS011;6543;48.836;10.092;2023-03-02T05:02:23;29.30;;;18.23;;
12956;SDS011;6543;48.836;10.092;2023-03-02T05:04:50;32.27;;;18.33;;
12956;SDS011;6543;48.836;10.092;2023-03-02T05:07:17;32.30;;;18.00;;
12956;SDS011;6543;48.836;10.092;2023-03-02T05:09:45;26.43;;;17.83;;
12956;SDS011;6543;48.836;10.092;2023-03-02T05:12:12;31.87;;;18.33;;
12956;SDS011;6543;48.836;10.092;2023-03-02T05:14:39;26.27;;;17.43;;
12956;SDS011;6543;48.836;10.092;2023-03-02T05:17:06;28.37;;;16.43;;
12956;SDS011;6543;48.836;10.092;2023-03-02T05:19:33;26.30;;;17.63;;
12956;SDS011;6543;48.836;10.092;2023-03-02T05:22:00;28.47;;;18.27;;
12956;SDS011;6543;48.836;10.092;2023-03-02T05:24:27;29.50;;;19.23;;
12956;SDS011;6543;48.836;10.092;2023-03-02T05:26:55;27.07;;;17.73;;
12956;SDS011;6543;48.836;10.092;2023-03-02T05:29:22;27.97;;;17.93;;
12956;SDS011;6543;48.836;10.092;2023-03-02T05:31:49;28.13;;;17.43;;
12956;SDS011;6543;48.836;10.092;2023-03-02T05:34:16;28.17;;;17.37;;
12956;SDS011;6543;48.836;10.092;2023-03-02T05:36:43;29.30;;;18.30;;
12956;SDS011;6543;48.836;10.092;2023-03-02T05:39:10;29.43;;;17.37;;
12956;SDS011;6543;48.836;10.092;2023-03-02T05:41:38;27.70;;;17.97;;
12956;SDS011;6543;48.836;10.092;2023-03-02T05:44:07;28.93;;;17.87;;
12956;SDS011;6543;48.836;10.092;2023-03-02T05:46:36;28.47;;;18.10;;
12956;SDS011;6543;48.836;10.092;2023-03-02T05:49:03;29.43;;;17.60;;
12956;SDS011;6543;48.836;10.092;2023-03-02T05:51:29;30.23;;;17.60;;
12956;SDS011;6543;48.836;10.092;2023-03-02T05:53:56;25.03;;;17.03;;
12956;SDS011;6543;48.836;10.092;2023-03-02T05:56:23;26.17;;;17.20;;
12956;SDS011;6543;48.836;10.092;2023-03-02T05:58:50;29.37;;;18.87;;
12956;SDS011;6543;48.836;10.092;2023-03-02T06:01:18;28.37;;;17.43;;
12956;SDS011;6543;48.836;10.092;2023-03-02T06:03:45;26.27;;;17.10;;
12956;SDS011;6543;48.836;10.092;2023-03-02T06:06:12;30.93;;;18.33;;
12956;SDS011;6543;48.836;10.092;2023-03-02T06:08:38;26.60;;;16.50;;
12956;SDS011;6543;48.836;10.092;2023-03-02T06:11:06;29.37;;;18.13;;
12956;SDS011;6543;48.836;10.092;2023-03-02T06:13:33;36.00;;;18.10;;
12956;SDS011;6543;48.836;10.092;2023-03-02T06:16:02;31.47;;;18.33;;
12956;SDS011;6543;48.836;10.092;2023-03-02T06:18:31;31.70;;;18.30;;
12956;SDS011;6543;48.836;10.092;2023-03-02T06:20:57;24.57;;;16.47;;
12956;SDS011;6543;48.836;10.092;2023-03-02T06:23:24;32.47;;;17.67;;
12956;SDS011;6543;48.836;10.092;2023-03-02T06:25:51;29.13;;;17.47;;
12956;SDS011;6543;48.836;10.092;2023-03-02T06:28:18;27.73;;;16.57;;
12956;SDS011;6543;48.836;10.092;2023-03-02T06:30:46;27.23;;;17.47;;
12956;SDS011;6543;48.836;10.092;2023-03-02T06:33:14;26.43;;;17.83;;
12956;SDS011;6543;48.836;10.092;2023-03-02T06:35:43;26.00;;;17.63;;
12956;SDS011;6543;48.836;10.092;2023-03-02T06:38:10;30.53;;;18.00;;
12956;SDS011;6543;48.836;10.092;2023-03-02T06:40:37;28.53;;;17.87;;
12956;SDS011;6543;48.836;10.092;2023-03-02T06:43:04;26.07;;;16.90;;
12956;SDS011;6543;48.836;10.092;2023-03-02T06:45:31;27.97;;;16.90;;
12956;SDS011;6543;48.836;10.092;2023-03-02T06:47:58;29.43;;;17.60;;
12956;SDS011;6543;48.836;10.092;2023-03-02T06:50:26;26.47;;;16.37;;
12956;SDS011;6543;48.836;10.092;2023-03-02T06:52:55;28.30;;;17.30;;
12956;SDS011;6543;48.836;10.092;2023-03-02T06:55:22;29.17;;;16.90;;
12956;SDS011;6543;48.836;10.092;2023-03-02T06:57:49;25.10;;;17.40;;
12956;SDS011;6543;48.836;10.092;2023-03-02T07:00:16;28.37;;;17.00;;
12956;SDS011;6543;48.836;10.092;2023-03-02T07:02:49;28.63;;;16.37;;
12956;SDS011;6543;48.836;10.092;2023-03-02T07:05:16;28.30;;;18.17;;
12956;SDS011;6543;48.836;10.092;2023-03-02T07:07:44;27.07;;;16.83;;
12956;SDS011;6543;48.836;10.092;2023-03-02T07:10:12;22.27;;;15.37;;
12956;SDS011;6543;48.836;10.092;2023-03-02T07:12:39;24.63;;;15.60;;
12956;SDS011;6543;48.836;10.092;2023-03-02T07:15:06;24.23;;;16.27;;
12956;SDS011;6543;48.836;10.092;2023-03-02T07:17:36;21.97;;;15.20;;
12956;SDS011;6543;48.836;10.092;2023-03-02T07:20:03;28.97;;;15.40;;
12956;SDS011;6543;48.836;10.092;2023-03-02T07:22:31;22.93;;;15.70;;
12956;SDS011;6543;48.836;10.092;2023-03-02T07:24:58;26.67;;;15.73;;
12956;SDS011;6543;48.836;10.092;2023-03-02T07:27:26;25.60;;;16.33;;
12956;SDS011;6543;48.836;10.092;2023-03-02T07:29:53;25.53;;;15.40;;
12956;SDS011;6543;48.836;10.092;2023-03-02T07:32:20;25.23;;;16.23;;
12956;SDS011;6543;48.836;10.092;2023-03-02T07:34:47;25.13;;;16.30;;
12956;SDS011;6543;48.836;10.092;2023-03-02T07:37:13;24.13;;;15.70;;
12956;SDS011;6543;48.836;10.092;2023-03-02T07:39:40;26.13;;;15.60;;
12956;SDS011;6543;48.836;10.092;2023-03-02T07:42:09;26.33;;;16.13;;
12956;SDS011;6543;48.836;10.092;2023-03-02T07:44:38;25.77;;;16.07;;
12956;SDS011;6543;48.836;10.092;2023-03-02T07:47:05;23.60;;;16.43;;
12956;SDS011;6543;48.836;10.092;2023-03-02T07:49:32;27.30;;;15.97;;
12956;SDS011;6543;48.836;10.092;2023-03-02T07:52:01;24.67;;;16.23;;
12956;SDS011;6543;48.836;10.092;2023-03-02T07:54:31;22.90;;;14.37;;
12956;SDS011;6543;48.836;10.092;2023-03-02T07:56:58;24.87;;;15.33;;
12956;SDS011;6543;48.836;10.092;2023-03-02T07:59:27;27.63;;;13.57;;
12956;SDS011;6543;48.836;10.092;2023-03-02T08:01:55;28.30;;;16.77;;
12956;SDS011;6543;48.836;10.092;2023-03-02T08:04:22;26.83;;;15.70;;
12956;SDS011;6543;48.836;10.092;2023-03-02T08:06:50;24.20;;;14.60;;
12956;SDS011;6543;48.836;10.092;2023-03-02T08:09:17;23.00;;;15.30;;
12956;SDS011;6543;48.836;10.092;2023-03-02T08:11:44;26.33;;;16.07;;
12956;SDS011;6543;48.836;10.092;2023-03-02T08:14:12;21.07;;;14.13;;
12956;SDS011;6543;48.836;10.092;2023-03-02T08:16:39;21.80;;;15.13;;
12956;SDS011;6543;48.836;10.092;2023-03-02T08:19:07;20.53;;;13.60;;
12956;SDS011;6543;48.836;10.092;2023-03-02T08:21:34;25.17;;;15.47;;
12956;SDS011;6543;48.836;10.092;2023-03-02T08:24:01;25.70;;;15.10;;
12956;SDS011;6543;48.836;10.092;2023-03-02T08:26:29;24.27;;;15.27;;
12956;SDS011;6543;48.836;10.092;2023-03-02T08:28:56;21.90;;;14.23;;
12956;SDS011;6543;48.836;10.092;2023-03-02T08:31:24;21.20;;;14.30;;
12956;SDS011;6543;48.836;10.092;2023-03-02T08:33:51;21.63;;;13.43;;
12956;SDS011;6543;48.836;10.092;2023-03-02T08:36:19;18.73;;;13.17;;
12956;SDS011;6543;48.836;10.092;2023-03-02T08:38:47;18.00;;;12.93;;
12956;SDS011;6543;48.836;10.092;2023-03-02T08:41:15;23.67;;;13.53;;
12956;SDS011;6543;48.836;10.092;2023-03-02T08:43:44;26.33;;;14.57;;
12956;SDS011;6543;48.836;10.092;2023-03-02T08:46:12;23.10;;;15.10;;
12956;SDS011;6543;48.836;10.092;2023-03-02T08:48:40;20.43;;;12.10;;
12956;SDS011;6543;48.836;10.092;2023-03-02T08:51:08;18.60;;;13.90;;
12956;SDS011;6543;48.836;10.092;2023-03-02T08:53:39;23.53;;;13.50;;
12956;SDS011;6543;48.836;10.092;2023-03-02T08:56:13;19.43;;;12.80;;
12956;SDS011;6543;48.836;10.092;2023-03-02T08:58:41;19.13;;;11.43;;
12956;SDS011;6543;48.836;10.092;2023-03-02T09:01:11;17.33;;;10.57;;
12956;SDS011;6543;48.836;10.092;2023-03-02T09:03:39;18.03;;;11.37;;
12956;SDS011;6543;48.836;10.092;2023-03-02T09:06:06;27.10;;;11.97;;
12956;SDS011;6543;48.836;10.092;2023-03-02T09:08:33;16.37;;;10.57;;
12956;SDS011;6543;48.836;10.092;2023-03-02T09:11:01;19.43;;;10.27;;
12956;SDS011;6543;48.836;10.092;2023-03-02T09:13:28;18.37;;;10.97;;
12956;SDS011;6543;48.836;10.092;2023-03-02T09:15:55;17.77;;;10.80;;
12956;SDS011;6543;48.836;10.092;2023-03-02T09:18:22;16.67;;;11.20;;
12956;SDS011;6543;48.836;10.092;2023-03-02T09:20:49;18.57;;;9.90;;
12956;SDS011;6543;48.836;10.092;2023-03-02T09:23:16;16.57;;;11.67;;
12956;SDS011;6543;48.836;10.092;2023-03-02T09:25:43;16.90;;;10.47;;
12956;SDS011;6543;48.836;10.092;2023-03-02T09:28:14;15.30;;;10.63;;
12956;SDS011;6543;48.836;10.092;2023-03-02T09:30:46;23.87;;;10.03;;
12956;SDS011;6543;48.836;10.092;2023-03-02T09:33:14;18.20;;;10.67;;
12956;SDS011;6543;48.836;10.092;2023-03-02T09:35:41;17.00;;;9.97;;
12956;SDS011;6543;48.836;10.092;2023-03-02T09:38:08;14.93;;;9.67;;
12956;SDS011;6543;48.836;10.092;2023-03-02T09:40:37;14.23;;;10.13;;
12956;SDS011;6543;48.836;10.092;2023-03-02T09:43:17;15.83;;;10.10;;
12956;SDS011;6543;48.836;10.092;2023-03-02T09:45:57;14.00;;;9.00;;
12956;SDS011;6543;48.836;10.092;2023-03-02T09:48:36;15.30;;;9.40;;
12956;SDS011;6543;48.836;10.092;2023-03-02T09:51:10;22.93;;;10.80;;
12956;SDS011;6543;48.836;10.092;2023-03-02T09:53:45;19.27;;;10.50;;
12956;SDS011;6543;48.836;10.092;2023-03-02T09:56:18;19.30;;;10.33;;
12956;SDS011;6543;48.836;10.092;2023-03-02T09:58:48;20.63;;;10.37;;
12956;SDS011;6543;48.836;10.092;2023-03-02T10:01:26;15.63;;;9.80;;
12956;SDS011;6543;48.836;10.092;2023-03-02T10:04:00;20.03;;;10.20;;
12956;SDS011;6543;48.836;10.092;2023-03-02T10:06:34;15.67;;;9.63;;
12956;SDS011;6543;48.836;10.092;2023-03-02T10:09:01;20.23;;;9.63;;
12956;SDS011;6543;48.836;10.092;2023-03-02T10:11:29;14.00;;;10.03;;
12956;SDS011;6543;48.836;10.092;2023-03-02T10:14:07;19.17;;;10.23;;
12956;SDS011;6543;48.836;10.092;2023-03-02T10:16:41;16.90;;;10.87;;
12956;SDS011;6543;48.836;10.092;2023-03-02T10:19:14;14.00;;;9.07;;
12956;SDS011;6543;48.836;10.092;2023-03-02T10:21:46;18.93;;;10.27;;
12956;SDS011;6543;48.836;10.092;2023-03-02T10:24:20;14.13;;;9.87;;
12956;SDS011;6543;48.836;10.092;2023-03-02T10:26:56;17.17;;;9.80;;
12956;SDS011;6543;48.836;10.092;2023-03-02T10:29:34;18.20;;;9.70;;
12956;SDS011;6543;48.836;10.092;2023-03-02T10:32:12;13.33;;;8.93;;
12956;SDS011;6543;48.836;10.092;2023-03-02T10:34:44;14.77;;;9.23;;
12956;SDS011;6543;48.836;10.092;2023-03-02T10:37:12;14.50;;;9.43;;
12956;SDS011;6543;48.836;10.092;2023-03-02T10:39:40;16.77;;;9.80;;
12956;SDS011;6543;48.836;10.092;2023-03-02T10:42:10;15.47;;;9.40;;
12956;SDS011;6543;48.836;10.092;2023-03-02T10:44:43;14.57;;;10.03;;
12956;SDS011;6543;48.836;10.092;2023-03-02T10:47:20;15.13;;;9.13;;
12956;SDS011;6543;48.836;10.092;2023-03-02T10:49:48;15.60;;;9.57;;
12956;SDS011;6543;48.836;10.092;2023-03-02T10:52:16;14.67;;;9.77;;
12956;SDS011;6543;48.836;10.092;2023-03-02T10:54:45;15.90;;;9.60;;
12956;SDS011;6543;48.836;10.092;2023-03-02T11:00:04;14.83;;;8.67;;
12956;SDS011;6543;48.836;10.092;2023-03-02T11:02:47;18.33;;;10.60;;
12956;SDS011;6543;48.836;10.092;2023-03-02T11:05:31;13.87;;;9.40;;
12956;SDS011;6543;48.836;10.092;2023-03-02T11:08:01;16.43;;;9.93;;
12956;SDS011;6543;48.836;10.092;2023-03-02T11:10:29;15.17;;;10.30;;
12956;SDS011;6543;48.836;10.092;2023-03-02T11:12:58;19.33;;;10.33;;
12956;SDS011;6543;48.836;10.092;2023-03-02T11:15:32;14.63;;;9.50;;
12956;SDS011;6543;48.836;10.092;2023-03-02T11:18:05;18.93;;;9.37;;
12956;SDS011;6543;48.836;10.092;2023-03-02T11:20:40;18.00;;;9.27;;
12956;SDS011;6543;48.836;10.092;2023-03-02T11:23:14;16.73;;;9.30;;
12956;SDS011;6543;48.836;10.092;2023-03-02T11:25:47;18.20;;;9.43;;
12956;SDS011;6543;48.836;10.092;2023-03-02T11:28:28;16.40;;;8.43;;
12956;SDS011;6543;48.836;10.092;2023-03-02T11:31:03;16.57;;;8.60;;
12956;SDS011;6543;48.836;10.092;2023-03-02T11:33:36;14.63;;;9.83;;
12956;SDS011;6543;48.836;10.092;2023-03-02T11:36:10;15.13;;;9.23;;
12956;SDS011;6543;48.836;10.092;2023-03-02T11:38:42;14.13;;;8.07;;
12956;SDS011;6543;48.836;10.092;2023-03-02T11:41:17;13.87;;;9.50;;
12956;SDS011;6543;48.836;10.092;2023-03-02T11:43:53;16.30;;;9.03;;
12956;SDS011;6543;48.836;10.092;2023-03-02T11:46:25;16.63;;;8.83;;
12956;SDS011;6543;48.836;10.092;2023-03-02T11:48:55;15.53;;;8.67;;
12956;SDS011;6543;48.836;10.092;2023-03-02T11:51:26;12.70;;;7.87;;
12956;SDS011;6543;48.836;10.092;2023-03-02T11:53:55;14.07;;;8.70;;
12956;SDS011;6543;48.836;10.092;2023-03-02T11:56:28;16.73;;;8.17;;
12956;SDS011;6543;48.836;10.092;2023-03-02T11:58:58;15.03;;;8.60;;
12956;SDS011;6543;48.836;10.092;2023-03-02T12:01:30;15.33;;;9.30;;
12956;SDS011;6543;48.836;10.092;2023-03-02T12:04:06;14.50;;;8.93;;
12956;SDS011;6543;48.836;10.092;2023-03-02T12:06:35;12.77;;;7.63;;
12956;SDS011;6543;48.836;10.092;2023-03-02T12:11:56;12.57;;;8.57;;
12956;SDS011;6543;48.836;10.092;2023-03-02T12:14:26;21.00;;;8.13;;
12956;SDS011;6543;48.836;10.092;2023-03-02T12:17:05;14.70;;;8.20;;
12956;SDS011;6543;48.836;10.092;2023-03-02T12:19:44;14.93;;;8.50;;
12956;SDS011;6543;48.836;10.092;2023-03-02T12:22:12;13.77;;;7.60;;
12956;SDS011;6543;48.836;10.092;2023-03-02T12:24:40;15.23;;;8.50;;
12956;SDS011;6543;48.836;10.092;2023-03-02T12:27:21;18.07;;;9.63;;
12956;SDS011;6543;48.836;10.092;2023-03-02T12:29:54;17.83;;;10.47;;
12956;SDS011;6543;48.836;10.092;2023-03-02T12:32:34;14.93;;;9.63;;
12956;SDS011;6543;48.836;10.092;2023-03-02T12:35:02;16.57;;;9.63;;
12956;SDS011;6543;48.836;10.092;2023-03-02T12:37:39;28.73;;;10.17;;
12956;SDS011;6543;48.836;10.092;2023-03-02T12:40:23;17.43;;;9.67;;
12956;SDS011;6543;48.836;10.092;2023-03-02T12:43:11;13.87;;;9.30;;
12956;SDS011;6543;48.836;10.092;2023-03-02T12:45:48;31.10;;;10.00;;
12956;SDS011;6543;48.836;10.092;2023-03-02T12:48:41;16.60;;;9.10;;
12956;SDS011;6543;48.836;10.092;2023-03-02T12:51:11;14.07;;;9.33;;
12956;SDS011;6543;48.836;10.092;2023-03-02T12:53:43;20.53;;;9.97;;
12956;SDS011;6543;48.836;10.092;2023-03-02T12:56:19;19.40;;;9.13;;
12956;SDS011;6543;48.836;10.092;2023-03-02T12:58:48;18.83;;;9.90;;
12956;SDS011;6543;48.836;10.092;2023-03-02T13:01:19;19.60;;;10.00;;
12956;SDS011;6543;48.836;10.092;2023-03-02T13:03:49;15.50;;;9.13;;
12956;SDS011;6543;48.836;10.092;2023-03-02T13:06:17;17.30;;;9.30;;
12956;SDS011;6543;48.836;10.092;2023-03-02T13:08:44;20.73;;;9.13;;
12956;SDS011;6543;48.836;10.092;2023-03-02T13:11:13;12.60;;;8.87;;
12956;SDS011;6543;48.836;10.092;2023-03-02T13:13:49;25.33;;;13.47;;
12956;SDS011;6543;48.836;10.092;2023-03-02T13:16:20;17.63;;;9.40;;
12956;SDS011;6543;48.836;10.092;2023-03-02T13:18:49;17.83;;;9.10;;
12956;SDS011;6543;48.836;10.092;2023-03-02T13:21:20;17.93;;;8.17;;
12956;SDS011;6543;48.836;10.092;2023-03-02T13:23:53;16.77;;;8.47;;
12956;SDS011;6543;48.836;10.092;2023-03-02T13:26:23;14.20;;;8.57;;
12956;SDS011;6543;48.836;10.092;2023-03-02T13:28:58;20.07;;;7.67;;
12956;SDS011;6543;48.836;10.092;2023-03-02T13:31:26;16.50;;;8.47;;
12956;SDS011;6543;48.836;10.092;2023-03-02T13:33:57;15.30;;;8.83;;
12956;SDS011;6543;48.836;10.092;2023-03-02T13:36:24;15.17;;;8.77;;
12956;SDS011;6543;48.836;10.092;2023-03-02T13:38:54;17.00;;;8.93;;
12956;SDS011;6543;48.836;10.092;2023-03-02T13:41:24;16.43;;;7.87;;
12956;SDS011;6543;48.836;10.092;2023-03-02T13:43:52;17.20;;;7.83;;
12956;SDS011;6543;48.836;10.092;2023-03-02T13:46:24;13.53;;;7.53;;
12956;SDS011;6543;48.836;10.092;2023-03-02T13:48:53;17.47;;;8.73;;
12956;SDS011;6543;48.836;10.092;2023-03-02T13:51:22;14.40;;;8.17;;
12956;SDS011;6543;48.836;10.092;2023-03-02T13:53:50;19.30;;;8.67;;
12956;SDS011;6543;48.836;10.092;2023-03-02T13:56:25;16.10;;;8.03;;
12956;SDS011;6543;48.836;10.092;2023-03-02T13:58:54;17.83;;;7.90;;
12956;SDS011;6543;48.836;10.092;2023-03-02T14:01:21;16.13;;;7.87;;
12956;SDS011;6543;48.836;10.092;2023-03-02T14:03:51;17.70;;;8.07;;
12956;SDS011;6543;48.836;10.092;2023-03-02T14:06:17;14.20;;;7.77;;
12956;SDS011;6543;48.836;10.092;2023-03-02T14:08:46;15.00;;;7.50;;
12956;SDS011;6543;48.836;10.092;2023-03-02T14:11:14;14.03;;;8.00;;
12956;SDS011;6543;48.836;10.092;2023-03-02T14:13:44;12.83;;;7.93;;
12956;SDS011;6543;48.836;10.092;2023-03-02T14:16:14;13.37;;;7.83;;
12956;SDS011;6543;48.836;10.092;2023-03-02T14:18:43;13.87;;;7.07;;
12956;SDS011;6543;48.836;10.092;2023-03-02T14:21:12;13.17;;;7.57;;
12956;SDS011;6543;48.836;10.092;2023-03-02T14:23:40;14.97;;;7.33;;
12956;SDS011;6543;48.836;10.092;2023-03-02T14:26:16;16.67;;;9.20;;
12956;SDS011;6543;48.836;10.092;2023-03-02T14:28:49;22.13;;;10.93;;
12956;SDS011;6543;48.836;10.092;2023-03-02T14:31:16;16.07;;;9.43;;
12956;SDS011;6543;48.836;10.092;2023-03-02T14:33:43;15.87;;;8.83;;
12956;SDS011;6543;48.836;10.092;2023-03-02T14:36:10;15.00;;;8.20;;
12956;SDS011;6543;48.836;10.092;2023-03-02T14:38:40;18.90;;;9.53;;
12956;SDS011;6543;48.836;10.092;2023-03-02T14:41:09;14.73;;;9.57;;
12956;SDS011;6543;48.836;10.092;2023-03-02T14:43:40;20.60;;;9.03;;